Time;durP1;ratioP1;P1;durP2;ratioP2;P2;SDS_P1;SDS_P2;PMS_P1;PMS_P2;Temp;Humidity;BMP_temperature;BMP_pressure;BME280_temperature;BME280_humidity;BME280_pressure;Samples;Min_cycle;Max_cycle;Signal;HPM_P1;HPM_P2
2023/10/15 00:01:30;;;;;;;0.00;0.00;;;;;;;;;;5069290;28;20127;-63
2023/10/15 00:03:56;;;;;;;0.00;0.00;;;;;;;;;;5070106;28;20067;-64
2023/10/15 00:06:22;;;;;;;0.00;0.00;;;;;;;;;;5069293;28;20044;-63
2023/10/15 00:08:50;;;;;;;0.00;0.00;;;;;;;;;;5070214;28;20102;-63
2023/10/15 00:11:21;;;;;;;0.00;0.00;;;;;;;;;;5068987;28;20048;-63
2023/10/15 00:13:47;;;;;;;0.10;0.10;;;;;;;;;;5070389;28;20467;-63
2023/10/15 00:16:20;;;;;;;0.00;0.00;;;;;;;;;;5069435;28;20497;-64
2023/10/15 00:18:46;;;;;;;0.10;0.10;;;;;;;;;;5068422;28;20040;-63
2023/10/15 00:21:12;;;;;;;0.00;0.00;;;;;;;;;;5050001;28;20047;-63
2023/10/15 00:23:38;;;;;;;0.00;0.00;;;;;;;;;;5067116;28;20041;-63
2023/10/15 00:26:04;;;;;;;0.00;0.00;;;;;;;;;;5069488;28;20565;-63
2023/10/15 00:28:31;;;;;;;0.10;0.10;;;;;;;;;;5069477;28;20507;-63
2023/10/15 00:30:57;;;;;;;0.00;0.00;;;;;;;;;;5069842;28;20044;-63
2023/10/15 00:33:23;;;;;;;0.10;0.10;;;;;;;;;;5069165;28;20037;-63
2023/10/15 00:35:53;;;;;;;0.20;0.20;;;;;;;;;;5058779;28;20055;-63
2023/10/15 00:38:19;;;;;;;0.40;0.40;;;;;;;;;;5054169;28;20074;-63
2023/10/15 00:40:46;;;;;;;0.00;0.00;;;;;;;;;;5055655;28;20134;-63
2023/10/15 00:43:17;;;;;;;0.10;0.10;;;;;;;;;;5068838;28;20506;-63
2023/10/15 00:45:46;;;;;;;0.00;0.00;;;;;;;;;;5069453;28;20079;-63
2023/10/15 00:48:18;;;;;;;0.10;0.10;;;;;;;;;;5069178;28;20060;-63
2023/10/15 00:50:44;;;;;;;0.10;0.10;;;;;;;;;;5069572;28;20071;-63
2023/10/15 00:53:27;;;;;;;0.07;0.07;;;;;;;;;;5069200;28;20131;-63
2023/10/15 00:55:53;;;;;;;0.00;0.00;;;;;;;;;;5069183;28;20496;-63
2023/10/15 00:58:31;;;;;;;0.00;0.00;;;;;;;;;;5069112;28;20052;-63
2023/10/15 01:01:00;;;;;;;0.07;0.07;;;;;;;;;;5069527;28;20048;-63
2023/10/15 01:03:37;;;;;;;0.00;0.00;;;;;;;;;;5069700;28;20055;-63
2023/10/15 01:06:04;;;;;;;0.10;0.10;;;;;;;;;;5055640;28;20502;-63
2023/10/15 01:08:39;;;;;;;0.10;0.10;;;;;;;;;;5049013;28;20049;-63
2023/10/15 01:11:08;;;;;;;0.00;0.00;;;;;;;;;;5049044;28;20053;-63
2023/10/15 01:13:35;;;;;;;0.00;0.00;;;;;;;;;;5048876;28;20511;-63
2023/10/15 01:16:03;;;;;;;0.00;0.00;;;;;;;;;;5048800;28;20114;-63
2023/10/15 01:18:29;;;;;;;0.63;0.63;;;;;;;;;;5048858;28;20053;-63
2023/10/15 01:20:55;;;;;;;0.00;0.00;;;;;;;;;;5049202;28;20067;-63
2023/10/15 01:26:09;;;;;;;0.00;0.00;;;;;;;;;;5050067;28;20504;-63
2023/10/15 01:28:38;;;;;;;0.30;0.30;;;;;;;;;;5050402;28;20067;-63
2023/10/15 01:31:05;;;;;;;0.00;0.00;;;;;;;;;;5048820;28;20556;-63
2023/10/15 01:33:46;;;;;;;0.20;0.20;;;;;;;;;;5048659;28;20048;-63
2023/10/15 01:36:16;;;;;;;0.00;0.00;;;;;;;;;;5064249;28;20044;-61
2023/10/15 01:38:44;;;;;;;0.03;0.03;;;;;;;;;;5068781;28;20059;-61
2023/10/15 01:41:14;;;;;;;0.00;0.00;;;;;;;;;;5068627;28;20049;-61
2023/10/15 01:43:46;;;;;;;0.30;0.30;;;;;;;;;;5068508;28;20106;-62
2023/10/15 01:46:12;;;;;;;0.00;0.00;;;;;;;;;;5069070;28;20048;-61
2023/10/15 01:48:41;;;;;;;0.00;0.00;;;;;;;;;;5068964;28;20057;-62
2023/10/15 01:51:08;;;;;;;0.00;0.00;;;;;;;;;;5068505;28;20136;-61
2023/10/15 01:53:34;;;;;;;0.10;0.10;;;;;;;;;;5068510;28;20041;-61
2023/10/15 01:56:04;;;;;;;0.00;0.00;;;;;;;;;;5068333;28;20457;-61
2023/10/15 01:58:33;;;;;;;0.00;0.00;;;;;;;;;;5068814;28;20044;-61
2023/10/15 02:01:09;;;;;;;0.00;0.00;;;;;;;;;;5068329;28;20088;-61
2023/10/15 02:03:37;;;;;;;0.07;0.07;;;;;;;;;;5068186;28;20514;-61
2023/10/15 02:06:06;;;;;;;0.00;0.00;;;;;;;;;;5062745;28;20541;-61
2023/10/15 02:08:33;;;;;;;0.60;0.50;;;;;;;;;;5048801;28;20439;-61
2023/10/15 02:11:05;;;;;;;0.00;0.00;;;;;;;;;;5048522;28;20052;-61
2023/10/15 02:13:33;;;;;;;0.10;0.10;;;;;;;;;;5048223;28;20049;-61
2023/10/15 02:16:08;;;;;;;0.00;0.00;;;;;;;;;;5062624;28;20059;-61
2023/10/15 02:18:35;;;;;;;0.10;0.10;;;;;;;;;;5068471;28;20083;-61
2023/10/15 02:21:01;;;;;;;0.10;0.10;;;;;;;;;;5068051;28;20052;-61
2023/10/15 02:23:32;;;;;;;0.10;0.10;;;;;;;;;;5067807;28;20052;-61
2023/10/15 02:25:58;;;;;;;0.00;0.00;;;;;;;;;;5054236;28;20094;-61
2023/10/15 02:28:31;;;;;;;0.00;0.00;;;;;;;;;;5068380;28;20040;-61
2023/10/15 02:33:33;;;;;;;0.00;0.00;;;;;;;;;;5071745;28;20056;-61
2023/10/15 02:35:59;;;;;;;0.00;0.00;;;;;;;;;;5066105;28;20123;-61
2023/10/15 02:38:35;;;;;;;0.00;0.00;;;;;;;;;;5051570;28;20061;-61
2023/10/15 02:41:06;;;;;;;0.00;0.00;;;;;;;;;;5051729;28;20081;-61
2023/10/15 02:43:32;;;;;;;0.10;0.10;;;;;;;;;;5051808;28;20407;-61
2023/10/15 02:46:00;;;;;;;0.93;0.93;;;;;;;;;;5051174;28;20082;-61
2023/10/15 02:48:26;;;;;;;0.00;0.00;;;;;;;;;;5051466;28;20491;-61
2023/10/15 02:51:07;;;;;;;0.00;0.00;;;;;;;;;;5050824;28;20063;-62
2023/10/15 02:53:35;;;;;;;0.00;0.00;;;;;;;;;;5051899;28;20045;-62
2023/10/15 02:56:10;;;;;;;0.00;0.00;;;;;;;;;;5051221;28;20154;-63
2023/10/15 02:58:36;;;;;;;0.00;0.00;;;;;;;;;;5051716;28;20052;-63
2023/10/15 03:01:06;;;;;;;0.10;0.10;;;;;;;;;;5051875;28;20049;-63
2023/10/15 03:03:34;;;;;;;0.10;0.10;;;;;;;;;;5051905;28;20110;-63
2023/10/15 03:06:00;;;;;;;0.20;0.20;;;;;;;;;;5051555;28;20080;-63
2023/10/15 03:08:32;;;;;;;0.00;0.00;;;;;;;;;;5071408;28;20127;-63
2023/10/15 03:11:12;;;;;;;0.00;0.00;;;;;;;;;;5070890;28;20434;-62
2023/10/15 03:13:50;;;;;;;0.00;0.00;;;;;;;;;;5071145;28;20056;-63
2023/10/15 03:16:19;;;;;;;0.93;0.67;;;;;;;;;;5069753;28;20543;-63
2023/10/15 03:18:49;;;;;;;0.00;0.00;;;;;;;;;;5067015;28;20163;-62
2023/10/15 03:21:25;;;;;;;0.00;0.00;;;;;;;;;;5049093;28;20056;-63
2023/10/15 03:24:04;;;;;;;0.00;0.00;;;;;;;;;;5061262;28;20044;-63
2023/10/15 03:26:32;;;;;;;0.10;0.10;;;;;;;;;;5068853;28;20372;-63
2023/10/15 03:28:58;;;;;;;0.00;0.00;;;;;;;;;;5068912;28;20053;-63
2023/10/15 03:31:27;;;;;;;0.10;0.10;;;;;;;;;;5069689;28;20075;-63
2023/10/15 03:34:14;;;;;;;0.10;0.10;;;;;;;;;;5070451;28;20084;-63
2023/10/15 03:36:58;;;;;;;0.00;0.00;;;;;;;;;;5050398;28;20060;-63
2023/10/15 03:39:25;;;;;;;0.00;0.00;;;;;;;;;;5050921;28;20539;-63
2023/10/15 03:42:09;;;;;;;0.00;0.00;;;;;;;;;;5050463;28;20095;-63
2023/10/15 03:44:36;;;;;;;0.00;0.00;;;;;;;;;;5050556;28;20074;-63
2023/10/15 03:47:05;;;;;;;0.00;0.00;;;;;;;;;;5050425;28;20093;-63
2023/10/15 03:49:32;;;;;;;0.07;0.07;;;;;;;;;;5050873;28;20045;-63
2023/10/15 03:51:58;;;;;;;0.00;0.00;;;;;;;;;;5050568;28;20245;-63
2023/10/15 03:54:24;;;;;;;0.00;0.00;;;;;;;;;;5050849;28;20049;-63
2023/10/15 03:56:52;;;;;;;0.10;0.10;;;;;;;;;;5050603;28;20135;-63
2023/10/15 03:59:19;;;;;;;0.10;0.10;;;;;;;;;;5050314;28;20483;-63
2023/10/15 04:01:48;;;;;;;0.10;0.10;;;;;;;;;;5050139;28;20507;-63
2023/10/15 04:04:18;;;;;;;0.10;0.10;;;;;;;;;;5050184;28;20056;-63
2023/10/15 04:07:03;;;;;;;0.00;0.00;;;;;;;;;;5050180;28;20495;-62
2023/10/15 04:09:33;;;;;;;0.00;0.00;;;;;;;;;;5050241;28;20056;-62
2023/10/15 04:11:59;;;;;;;0.00;0.00;;;;;;;;;;5049891;28;20037;-62
2023/10/15 04:14:28;;;;;;;0.00;0.00;;;;;;;;;;5050193;28;20114;-62
2023/10/15 04:16:54;;;;;;;0.00;0.00;;;;;;;;;;5052437;28;20045;-62
2023/10/15 04:19:20;;;;;;;0.10;0.10;;;;;;;;;;5049697;28;20071;-62
2023/10/15 04:21:46;;;;;;;0.17;0.17;;;;;;;;;;5049631;28;20049;-62
2023/10/15 04:24:22;;;;;;;0.00;0.00;;;;;;;;;;5049731;28;20041;-62
2023/10/15 04:26:51;;;;;;;0.00;0.00;;;;;;;;;;5049610;28;20506;-62
2023/10/15 04:29:17;;;;;;;0.00;0.00;;;;;;;;;;5049866;28;20053;-63
2023/10/15 04:31:51;;;;;;;0.00;0.00;;;;;;;;;;5049695;28;20053;-62
2023/10/15 04:34:18;;;;;;;0.10;0.10;;;;;;;;;;5049810;28;20057;-62
2023/10/15 04:36:45;;;;;;;0.00;0.00;;;;;;;;;;5049254;28;20083;-62
2023/10/15 04:39:13;;;;;;;0.10;0.10;;;;;;;;;;5049029;28;20670;-62
2023/10/15 04:41:40;;;;;;;0.17;0.17;;;;;;;;;;5049464;28;20467;-64
2023/10/15 04:44:20;;;;;;;0.00;0.00;;;;;;;;;;5050394;28;20036;-62
2023/10/15 04:46:46;;;;;;;0.00;0.00;;;;;;;;;;5047738;28;20494;-62
2023/10/15 04:49:17;;;;;;;0.00;0.00;;;;;;;;;;5049480;28;20049;-62
2023/10/15 04:51:43;;;;;;;0.10;0.10;;;;;;;;;;5049183;28;20105;-62
2023/10/15 04:54:10;;;;;;;0.20;0.20;;;;;;;;;;5048293;28;20916;-62
2023/10/15 04:56:36;;;;;;;0.00;0.00;;;;;;;;;;5049339;28;20415;-62
2023/10/15 04:59:02;;;;;;;0.00;0.00;;;;;;;;;;5048973;28;20095;-62
2023/10/15 05:01:30;;;;;;;0.10;0.10;;;;;;;;;;5064620;28;20043;-62
2023/10/15 05:03:56;;;;;;;0.10;0.10;;;;;;;;;;5068812;28;20063;-62
2023/10/15 05:06:22;;;;;;;0.07;0.07;;;;;;;;;;5069189;28;20407;-62
2023/10/15 05:08:48;;;;;;;0.00;0.00;;;;;;;;;;5069127;28;20052;-62
2023/10/15 05:11:21;;;;;;;0.00;0.00;;;;;;;;;;5063865;28;20048;-62
2023/10/15 05:13:47;;;;;;;0.00;0.00;;;;;;;;;;5059923;28;20044;-62
2023/10/15 05:16:14;;;;;;;0.03;0.03;;;;;;;;;;5057753;28;20097;-62
2023/10/15 05:18:40;;;;;;;0.00;0.00;;;;;;;;;;5048493;28;20453;-62
2023/10/15 05:21:06;;;;;;;0.03;0.03;;;;;;;;;;5049478;28;20076;-62
2023/10/15 05:23:33;;;;;;;0.00;0.00;;;;;;;;;;5048566;28;20491;-62
2023/10/15 05:25:59;;;;;;;0.10;0.10;;;;;;;;;;5048537;28;20060;-63
2023/10/15 05:28:26;;;;;;;0.00;0.00;;;;;;;;;;5048889;28;20037;-62
2023/10/15 05:30:52;;;;;;;0.00;0.00;;;;;;;;;;5048698;28;20049;-62
2023/10/15 05:33:18;;;;;;;0.00;0.00;;;;;;;;;;5048589;28;20037;-62
2023/10/15 05:35:48;;;;;;;0.00;0.00;;;;;;;;;;5048665;28;21035;-63
2023/10/15 05:38:14;;;;;;;0.83;0.50;;;;;;;;;;5047978;28;20179;-63
2023/10/15 05:40:41;;;;;;;0.00;0.00;;;;;;;;;;5050539;28;20069;-62
2023/10/15 05:43:07;;;;;;;0.07;0.07;;;;;;;;;;5068312;28;20494;-62
2023/10/15 05:45:33;;;;;;;0.00;0.00;;;;;;;;;;5068921;28;20044;-63
2023/10/15 05:48:00;;;;;;;0.00;0.00;;;;;;;;;;5068520;28;20076;-62
2023/10/15 05:50:26;;;;;;;0.00;0.00;;;;;;;;;;5066942;28;20048;-62
2023/10/15 05:52:52;;;;;;;0.10;0.10;;;;;;;;;;5068309;28;20040;-62
2023/10/15 05:55:19;;;;;;;0.00;0.00;;;;;;;;;;5068615;28;20040;-62
2023/10/15 05:57:46;;;;;;;0.00;0.00;;;;;;;;;;5068557;28;20047;-63
2023/10/15 06:00:18;;;;;;;0.30;0.23;;;;;;;;;;5068558;28;20048;-62
2023/10/15 06:02:44;;;;;;;1.10;0.60;;;;;;;;;;5068001;28;20121;-63
2023/10/15 06:05:13;;;;;;;0.00;0.00;;;;;;;;;;5069540;28;20041;-62
2023/10/15 06:07:39;;;;;;;0.00;0.00;;;;;;;;;;5053283;28;20392;-63
2023/10/15 06:10:05;;;;;;;0.00;0.00;;;;;;;;;;5052107;28;20041;-62
2023/10/15 06:12:31;;;;;;;0.10;0.10;;;;;;;;;;5052152;28;20752;-63
2023/10/15 06:14:59;;;;;;;0.00;0.00;;;;;;;;;;5052007;28;20052;-62
2023/10/15 06:17:25;;;;;;;0.60;0.50;;;;;;;;;;5051850;28;20135;-62
2023/10/15 06:19:51;;;;;;;0.10;0.10;;;;;;;;;;5052001;28;20151;-63
2023/10/15 06:22:17;;;;;;;0.10;0.10;;;;;;;;;;5052131;28;20048;-62
2023/10/15 06:24:46;;;;;;;0.10;0.10;;;;;;;;;;5052008;28;20491;-63
2023/10/15 06:27:13;;;;;;;0.00;0.00;;;;;;;;;;5051664;28;20059;-63
2023/10/15 06:29:39;;;;;;;0.00;0.00;;;;;;;;;;5060061;28;20122;-64
2023/10/15 06:32:05;;;;;;;0.00;0.00;;;;;;;;;;5051404;28;20045;-63
2023/10/15 06:34:31;;;;;;;0.00;0.00;;;;;;;;;;5052059;28;20049;-63
2023/10/15 06:36:57;;;;;;;0.10;0.10;;;;;;;;;;5051300;28;20061;-63
2023/10/15 06:39:22;;;;;;;0.00;0.00;;;;;;;;;;5051612;28;20049;-63
2023/10/15 06:41:48;;;;;;;0.10;0.10;;;;;;;;;;5051417;28;20045;-62
2023/10/15 06:44:16;;;;;;;0.03;0.03;;;;;;;;;;5051299;28;20392;-63
2023/10/15 06:46:42;;;;;;;0.00;0.00;;;;;;;;;;5051845;28;20080;-63
2023/10/15 06:49:08;;;;;;;0.00;0.00;;;;;;;;;;5063360;28;20414;-63
2023/10/15 06:51:34;;;;;;;0.00;0.00;;;;;;;;;;5070438;28;20036;-63
2023/10/15 06:54:00;;;;;;;0.00;0.00;;;;;;;;;;5071152;28;20135;-62
2023/10/15 06:56:27;;;;;;;0.00;0.00;;;;;;;;;;5069660;28;20111;-63
2023/10/15 06:58:53;;;;;;;0.00;0.00;;;;;;;;;;5071246;28;20052;-63
2023/10/15 07:01:19;;;;;;;0.00;0.00;;;;;;;;;;5062023;28;20049;-62
2023/10/15 07:03:45;;;;;;;0.03;0.03;;;;;;;;;;5050776;28;20045;-63
2023/10/15 07:06:11;;;;;;;0.00;0.00;;;;;;;;;;5052174;28;20057;-63
2023/10/15 07:08:37;;;;;;;0.00;0.00;;;;;;;;;;5059528;28;20102;-63
2023/10/15 07:11:05;;;;;;;1.90;1.13;;;;;;;;;;5070419;28;20048;-63
2023/10/15 07:13:31;;;;;;;0.00;0.00;;;;;;;;;;5069407;28;20044;-63
2023/10/15 07:15:57;;;;;;;0.00;0.00;;;;;;;;;;5070277;28;20075;-62
2023/10/15 07:18:23;;;;;;;0.00;0.00;;;;;;;;;;5071293;28;20052;-62
2023/10/15 07:20:49;;;;;;;0.10;0.10;;;;;;;;;;5070796;28;20135;-62
2023/10/15 07:23:15;;;;;;;0.50;0.40;;;;;;;;;;5070630;28;20131;-62
2023/10/15 07:25:42;;;;;;;0.00;0.00;;;;;;;;;;5070685;28;20071;-62
2023/10/15 07:28:10;;;;;;;0.10;0.10;;;;;;;;;;5068766;28;20569;-62
2023/10/15 07:30:36;;;;;;;0.00;0.00;;;;;;;;;;5070699;28;20041;-62
2023/10/15 07:33:02;;;;;;;0.00;0.00;;;;;;;;;;5055362;28;20056;-62
2023/10/15 07:35:29;;;;;;;0.10;0.10;;;;;;;;;;5067931;28;20063;-62
2023/10/15 07:37:56;;;;;;;0.00;0.00;;;;;;;;;;5066109;28;20423;-62
2023/10/15 07:40:25;;;;;;;0.10;0.10;;;;;;;;;;5047929;28;20560;-63
2023/10/15 07:42:52;;;;;;;0.03;0.03;;;;;;;;;;5050803;28;20048;-62
2023/10/15 07:45:19;;;;;;;0.00;0.00;;;;;;;;;;5050532;28;20495;-62
2023/10/15 07:47:46;;;;;;;0.10;0.10;;;;;;;;;;5050324;28;20056;-62
2023/10/15 07:50:13;;;;;;;0.00;0.00;;;;;;;;;;5050344;28;20041;-62
2023/10/15 07:52:39;;;;;;;0.00;0.00;;;;;;;;;;5068442;28;20051;-62
2023/10/15 07:55:10;;;;;;;0.00;0.00;;;;;;;;;;5068525;28;20569;-62
2023/10/15 07:57:37;;;;;;;0.00;0.00;;;;;;;;;;5070526;28;20426;-62
2023/10/15 08:00:05;;;;;;;0.03;0.03;;;;;;;;;;5062313;28;20102;-62
2023/10/15 08:02:31;;;;;;;0.00;0.00;;;;;;;;;;5049445;28;20092;-62
2023/10/15 08:04:57;;;;;;;0.10;0.10;;;;;;;;;;5049978;28;20115;-62
2023/10/15 08:07:23;;;;;;;0.03;0.03;;;;;;;;;;5051338;28;20040;-62
2023/10/15 08:09:53;;;;;;;0.00;0.00;;;;;;;;;;5049923;28;20132;-62
2023/10/15 08:12:19;;;;;;;0.00;0.00;;;;;;;;;;5053852;28;20051;-62
2023/10/15 08:14:48;;;;;;;0.00;0.00;;;;;;;;;;5069934;28;20072;-62
2023/10/15 08:17:14;;;;;;;0.00;0.00;;;;;;;;;;5069637;28;20127;-62
2023/10/15 08:19:40;;;;;;;0.20;0.20;;;;;;;;;;5069354;28;20135;-62
2023/10/15 08:22:06;;;;;;;0.30;0.30;;;;;;;;;;5069880;28;20078;-63
2023/10/15 08:24:32;;;;;;;0.00;0.00;;;;;;;;;;5069093;28;20063;-62
2023/10/15 08:26:59;;;;;;;0.10;0.10;;;;;;;;;;5068020;28;20826;-62
2023/10/15 08:29:25;;;;;;;0.00;0.00;;;;;;;;;;5069359;28;20059;-62
2023/10/15 08:31:51;;;;;;;0.00;0.00;;;;;;;;;;5069211;28;20044;-63
2023/10/15 08:34:17;;;;;;;0.00;0.00;;;;;;;;;;5067637;28;20048;-63
2023/10/15 08:36:43;;;;;;;0.00;0.00;;;;;;;;;;5069331;28;20044;-63
2023/10/15 08:39:09;;;;;;;0.00;0.00;;;;;;;;;;5069519;28;20052;-62
2023/10/15 08:41:39;;;;;;;0.00;0.00;;;;;;;;;;5067882;28;20413;-63
2023/10/15 08:44:08;;;;;;;0.00;0.00;;;;;;;;;;5069206;28;20053;-63
2023/10/15 08:46:37;;;;;;;0.00;0.00;;;;;;;;;;5069016;28;20052;-63
2023/10/15 08:49:07;;;;;;;0.00;0.00;;;;;;;;;;5068900;28;20051;-62
2023/10/15 08:51:34;;;;;;;0.00;0.00;;;;;;;;;;5069062;28;20067;-62
2023/10/15 08:54:02;;;;;;;0.17;0.17;;;;;;;;;;5068498;28;20059;-62
2023/10/15 08:56:30;;;;;;;0.00;0.00;;;;;;;;;;5067867;28;20572;-63
2023/10/15 08:58:57;;;;;;;2.33;0.50;;;;;;;;;;5068205;28;20048;-63
2023/10/15 09:01:23;;;;;;;0.00;0.00;;;;;;;;;;5048779;28;20049;-63
2023/10/15 09:03:52;;;;;;;0.00;0.00;;;;;;;;;;5049245;28;20057;-63
2023/10/15 09:06:19;;;;;;;0.00;0.00;;;;;;;;;;5048776;28;20045;-63
2023/10/15 09:08:45;;;;;;;0.00;0.00;;;;;;;;;;5049129;28;20048;-63
2023/10/15 09:11:12;;;;;;;0.00;0.00;;;;;;;;;;5049060;28;20052;-63
2023/10/15 09:13:38;;;;;;;0.00;0.00;;;;;;;;;;5049209;28;20041;-63
2023/10/15 09:16:06;;;;;;;0.00;0.00;;;;;;;;;;5048748;28;20095;-63
2023/10/15 09:18:35;;;;;;;0.10;0.10;;;;;;;;;;5048430;28;20120;-63
2023/10/15 09:21:03;;;;;;;1.27;0.80;;;;;;;;;;5048350;28;20049;-63
2023/10/15 09:23:35;;;;;;;0.13;0.13;;;;;;;;;;5057162;28;20048;-63
2023/10/15 09:26:01;;;;;;;0.00;0.00;;;;;;;;;;5068382;28;20101;-63
2023/10/15 09:28:28;;;;;;;0.00;0.00;;;;;;;;;;5068568;28;20403;-63
2023/10/15 09:31:01;;;;;;;0.97;0.53;;;;;;;;;;5068212;28;20057;-63
2023/10/15 09:33:31;;;;;;;0.00;0.00;;;;;;;;;;5068654;28;20044;-63
2023/10/15 09:35:57;;;;;;;0.00;0.00;;;;;;;;;;5068394;28;20041;-63
2023/10/15 09:38:23;;;;;;;0.00;0.00;;;;;;;;;;5068321;28;20060;-63
2023/10/15 09:40:49;;;;;;;1.60;0.80;;;;;;;;;;5066700;28;20053;-63
2023/10/15 09:43:16;;;;;;;0.00;0.00;;;;;;;;;;5062170;28;20033;-63
2023/10/15 09:45:43;;;;;;;0.00;0.00;;;;;;;;;;5065838;28;20775;-63
2023/10/15 09:48:12;;;;;;;0.17;0.17;;;;;;;;;;5068118;28;20045;-63
2023/10/15 09:50:38;;;;;;;0.00;0.00;;;;;;;;;;5066860;28;20123;-63
2023/10/15 09:53:12;;;;;;;0.10;0.10;;;;;;;;;;5067675;28;20451;-63
2023/10/15 09:55:40;;;;;;;0.00;0.00;;;;;;;;;;5066539;28;20041;-63
2023/10/15 09:58:09;;;;;;;0.00;0.00;;;;;;;;;;5067748;28;20056;-62
2023/10/15 10:03:39;;;;;;;0.10;0.10;;;;;;;;;;5065237;28;20449;-63
2023/10/15 10:06:24;;;;;;;0.00;0.00;;;;;;;;;;5048493;28;20053;-63
2023/10/15 10:09:09;;;;;;;0.00;0.00;;;;;;;;;;5048188;28;20057;-63
2023/10/15 10:11:54;;;;;;;0.10;0.10;;;;;;;;;;5049466;28;20438;-63
2023/10/15 10:14:23;;;;;;;0.00;0.00;;;;;;;;;;5068272;28;20044;-63
2023/10/15 10:16:49;;;;;;;0.00;0.00;;;;;;;;;;5068115;28;20045;-63
2023/10/15 10:19:17;;;;;;;0.00;0.00;;;;;;;;;;5067735;28;20044;-63
2023/10/15 10:21:47;;;;;;;0.00;0.00;;;;;;;;;;5065929;28;20047;-63
2023/10/15 10:24:14;;;;;;;0.00;0.00;;;;;;;;;;5050195;28;20048;-63
2023/10/15 10:26:40;;;;;;;0.00;0.00;;;;;;;;;;5048425;28;20087;-63
2023/10/15 10:29:07;;;;;;;0.20;0.20;;;;;;;;;;5066621;28;20055;-63
2023/10/15 10:31:39;;;;;;;0.27;0.27;;;;;;;;;;5067870;28;20050;-63
2023/10/15 10:34:05;;;;;;;0.00;0.00;;;;;;;;;;5066890;28;20071;-63
2023/10/15 10:36:31;;;;;;;0.00;0.00;;;;;;;;;;5067456;28;20424;-63
2023/10/15 10:39:11;;;;;;;0.10;0.10;;;;;;;;;;5067800;28;20542;-63
2023/10/15 10:41:41;;;;;;;0.00;0.00;;;;;;;;;;5067671;28;20048;-63
2023/10/15 10:44:08;;;;;;;0.50;0.10;;;;;;;;;;5067515;28;20091;-63
2023/10/15 10:46:41;;;;;;;0.10;0.10;;;;;;;;;;5067459;28;20513;-63
2023/10/15 10:49:13;;;;;;;0.17;0.17;;;;;;;;;;5067819;28;20049;-63
2023/10/15 10:51:40;;;;;;;0.40;0.27;;;;;;;;;;5070170;28;20049;-63
2023/10/15 10:54:06;;;;;;;0.00;0.00;;;;;;;;;;5070881;28;20499;-63
2023/10/15 10:56:41;;;;;;;0.40;0.40;;;;;;;;;;5071066;28;20528;-63
2023/10/15 10:59:07;;;;;;;0.00;0.00;;;;;;;;;;5068809;28;20055;-64
2023/10/15 11:01:37;;;;;;;0.00;0.00;;;;;;;;;;5056891;28;20044;-65
2023/10/15 11:04:04;;;;;;;0.00;0.00;;;;;;;;;;5071215;28;20743;-63
2023/10/15 11:06:30;;;;;;;0.00;0.00;;;;;;;;;;5071632;28;20110;-63
2023/10/15 11:08:56;;;;;;;0.00;0.00;;;;;;;;;;5071510;28;20052;-63
2023/10/15 11:11:22;;;;;;;0.00;0.00;;;;;;;;;;5070391;28;20384;-64
2023/10/15 11:13:48;;;;;;;0.00;0.00;;;;;;;;;;5070675;28;20048;-63
2023/10/15 11:16:16;;;;;;;0.00;0.00;;;;;;;;;;5061639;28;20044;-63
2023/10/15 11:18:45;;;;;;;0.00;0.00;;;;;;;;;;5051202;28;20495;-63
2023/10/15 11:21:11;;;;;;;1.43;1.33;;;;;;;;;;5050858;28;20202;-63
2023/10/15 11:23:38;;;;;;;0.00;0.00;;;;;;;;;;5051069;28;20052;-63
2023/10/15 11:26:04;;;;;;;0.10;0.10;;;;;;;;;;5050175;28;20084;-63
2023/10/15 11:28:30;;;;;;;0.00;0.00;;;;;;;;;;5050669;28;20131;-63
2023/10/15 11:30:57;;;;;;;0.00;0.00;;;;;;;;;;5050551;28;20078;-63
2023/10/15 11:33:23;;;;;;;0.00;0.00;;;;;;;;;;5059006;28;20039;-63
2023/10/15 11:35:51;;;;;;;0.00;0.00;;;;;;;;;;5052216;28;20075;-63
2023/10/15 11:38:17;;;;;;;0.00;0.00;;;;;;;;;;5050307;28;20045;-63
2023/10/15 11:40:45;;;;;;;0.07;0.07;;;;;;;;;;5050342;28;20048;-63
2023/10/15 11:43:17;;;;;;;0.00;0.00;;;;;;;;;;5050276;28;20084;-64
2023/10/15 11:45:43;;;;;;;0.00;0.00;;;;;;;;;;5068768;28;20088;-64
2023/10/15 11:48:14;;;;;;;0.00;0.00;;;;;;;;;;5070108;28;20048;-63
2023/10/15 11:50:40;;;;;;;0.30;0.30;;;;;;;;;;5070312;28;20186;-64
2023/10/15 11:53:16;;;;;;;0.00;0.00;;;;;;;;;;5070275;28;20443;-64
2023/10/15 11:55:47;;;;;;;0.00;0.00;;;;;;;;;;5069826;28;20045;-63
2023/10/15 11:58:16;;;;;;;0.00;0.00;;;;;;;;;;5070138;28;20505;-63
2023/10/15 12:00:42;;;;;;;0.40;0.30;;;;;;;;;;5059461;28;20543;-63
2023/10/15 12:03:09;;;;;;;0.00;0.00;;;;;;;;;;5049936;28;20095;-63
2023/10/15 12:05:37;;;;;;;0.00;0.00;;;;;;;;;;5049928;28;20041;-63
2023/10/15 12:08:03;;;;;;;0.00;0.00;;;;;;;;;;5049991;28;20499;-63
2023/10/15 12:10:29;;;;;;;0.00;0.00;;;;;;;;;;5049780;28;20044;-63
2023/10/15 12:12:56;;;;;;;0.00;0.00;;;;;;;;;;5049701;28;20126;-63
2023/10/15 12:15:22;;;;;;;0.00;0.00;;;;;;;;;;5049422;28;20045;-63
2023/10/15 12:17:48;;;;;;;0.00;0.00;;;;;;;;;;5050123;28;20537;-63
2023/10/15 12:20:17;;;;;;;0.00;0.00;;;;;;;;;;5057936;28;20049;-63
2023/10/15 12:22:43;;;;;;;0.53;0.50;;;;;;;;;;5068465;28;20040;-63
2023/10/15 12:25:09;;;;;;;0.00;0.00;;;;;;;;;;5069570;28;20050;-63
2023/10/15 12:27:38;;;;;;;7.57;2.13;;;;;;;;;;5069679;28;20052;-62
2023/10/15 12:30:07;;;;;;;0.00;0.00;;;;;;;;;;5069201;28;20093;-62
2023/10/15 12:32:33;;;;;;;0.20;0.20;;;;;;;;;;5065684;28;20567;-62
2023/10/15 12:35:08;;;;;;;1.20;0.20;;;;;;;;;;5051703;28;20114;-63
2023/10/15 12:37:36;;;;;;;0.00;0.00;;;;;;;;;;5057981;28;20087;-63
2023/10/15 12:40:10;;;;;;;0.00;0.00;;;;;;;;;;5050180;28;20128;-62
2023/10/15 12:42:37;;;;;;;0.00;0.00;;;;;;;;;;5047744;28;20048;-63
2023/10/15 12:45:03;;;;;;;0.00;0.00;;;;;;;;;;5047382;28;20073;-63
2023/10/15 12:47:29;;;;;;;0.10;0.10;;;;;;;;;;5067848;28;20053;-62
2023/10/15 12:49:55;;;;;;;0.00;0.00;;;;;;;;;;5067148;28;20040;-60
2023/10/15 12:52:23;;;;;;;0.00;0.00;;;;;;;;;;5067186;28;20556;-60
2023/10/15 12:54:49;;;;;;;0.00;0.00;;;;;;;;;;5067082;28;20052;-60
2023/10/15 12:57:15;;;;;;;1.07;0.33;;;;;;;;;;5066968;28;20099;-60
2023/10/15 12:59:41;;;;;;;0.43;0.40;;;;;;;;;;5066972;28;20048;-60
2023/10/15 13:02:07;;;;;;;0.00;0.00;;;;;;;;;;5067312;28;20063;-60
2023/10/15 13:04:33;;;;;;;0.23;0.23;;;;;;;;;;5066868;28;20036;-60
2023/10/15 13:07:03;;;;;;;0.00;0.00;;;;;;;;;;5068315;28;20106;-62
2023/10/15 13:09:32;;;;;;;0.20;0.20;;;;;;;;;;5068396;28;20164;-59
2023/10/15 13:11:58;;;;;;;0.30;0.20;;;;;;;;;;5056812;28;20186;-59
2023/10/15 13:14:24;;;;;;;0.10;0.10;;;;;;;;;;5048102;28;20045;-59
2023/10/15 13:16:50;;;;;;;0.00;0.00;;;;;;;;;;5048907;28;20063;-59
2023/10/15 13:19:16;;;;;;;0.00;0.00;;;;;;;;;;5048570;28;20041;-59
2023/10/15 13:21:43;;;;;;;0.27;0.07;;;;;;;;;;5047960;28;20045;-59
2023/10/15 13:24:10;;;;;;;0.00;0.00;;;;;;;;;;5063339;28;20067;-59
2023/10/15 13:26:39;;;;;;;0.00;0.00;;;;;;;;;;5068295;28;20084;-59
2023/10/15 13:29:05;;;;;;;0.00;0.00;;;;;;;;;;5067974;28;20048;-59
2023/10/15 13:31:32;;;;;;;0.00;0.00;;;;;;;;;;5066574;28;20083;-59
2023/10/15 13:33:58;;;;;;;0.00;0.00;;;;;;;;;;5068471;28;20055;-59
2023/10/15 13:36:24;;;;;;;0.00;0.00;;;;;;;;;;5068083;28;20053;-59
2023/10/15 13:38:51;;;;;;;0.20;0.10;;;;;;;;;;5068443;28;20113;-59
2023/10/15 13:41:18;;;;;;;0.00;0.00;;;;;;;;;;5067827;28;20055;-58
2023/10/15 13:43:44;;;;;;;0.40;0.30;;;;;;;;;;5068312;28;20128;-58
2023/10/15 13:46:10;;;;;;;0.00;0.00;;;;;;;;;;5068117;28;20501;-60
2023/10/15 13:48:36;;;;;;;0.00;0.00;;;;;;;;;;5068253;28;20041;-61
2023/10/15 13:51:02;;;;;;;0.00;0.00;;;;;;;;;;5068177;28;20049;-60
2023/10/15 13:53:33;;;;;;;0.00;0.00;;;;;;;;;;5048688;28;20037;-58
2023/10/15 13:56:00;;;;;;;0.00;0.00;;;;;;;;;;5048220;28;20049;-58
2023/10/15 13:58:26;;;;;;;0.10;0.10;;;;;;;;;;5048064;28;20053;-58
2023/10/15 14:00:52;;;;;;;0.00;0.00;;;;;;;;;;5048260;28;20396;-58
2023/10/15 14:03:18;;;;;;;0.00;0.00;;;;;;;;;;5048529;28;20119;-60
2023/10/15 14:05:44;;;;;;;0.00;0.00;;;;;;;;;;5050152;28;20040;-58
2023/10/15 14:08:10;;;;;;;0.13;0.13;;;;;;;;;;5048593;28;20056;-60
2023/10/15 14:10:38;;;;;;;0.20;0.20;;;;;;;;;;5055403;28;21008;-60
2023/10/15 14:13:05;;;;;;;0.07;0.07;;;;;;;;;;5067687;28;20055;-61
2023/10/15 14:15:32;;;;;;;0.00;0.00;;;;;;;;;;5068190;28;20044;-61
2023/10/15 14:17:58;;;;;;;0.00;0.00;;;;;;;;;;5067372;28;20097;-61
2023/10/15 14:20:24;;;;;;;0.00;0.00;;;;;;;;;;5068529;28;20045;-61
2023/10/15 14:22:51;;;;;;;0.00;0.00;;;;;;;;;;5068069;28;20049;-60
2023/10/15 14:25:17;;;;;;;0.03;0.03;;;;;;;;;;5067608;28;20055;-61
2023/10/15 14:27:43;;;;;;;0.10;0.10;;;;;;;;;;5071773;28;20499;-61
2023/10/15 14:30:10;;;;;;;0.10;0.10;;;;;;;;;;5071682;28;20051;-62
2023/10/15 14:32:36;;;;;;;0.00;0.00;;;;;;;;;;5071436;28;20040;-60
2023/10/15 14:35:04;;;;;;;0.03;0.03;;;;;;;;;;5071360;28;20513;-61
2023/10/15 14:37:31;;;;;;;0.00;0.00;;;;;;;;;;5066969;28;20052;-61
2023/10/15 14:39:57;;;;;;;1.90;0.93;;;;;;;;;;5065718;28;20045;-61
2023/10/15 14:42:23;;;;;;;0.00;0.00;;;;;;;;;;5071619;28;20090;-61
2023/10/15 14:44:51;;;;;;;0.00;0.00;;;;;;;;;;5071004;28;20036;-60
2023/10/15 14:47:17;;;;;;;0.00;0.00;;;;;;;;;;5071400;28;20048;-61
2023/10/15 14:49:43;;;;;;;0.27;0.20;;;;;;;;;;5071414;28;20048;-61
2023/10/15 14:52:09;;;;;;;0.00;0.00;;;;;;;;;;5070969;28;20048;-61
2023/10/15 14:54:35;;;;;;;0.00;0.00;;;;;;;;;;5066208;28;20380;-61
2023/10/15 14:57:01;;;;;;;0.00;0.00;;;;;;;;;;5053302;28;20049;-62